KFLG

Flagstaff Pulliam Airport

Flagstaff, Arizona, USA
METAR KFLG 181557Z 00000KT 10SM CLR M02/M12 A3018 RMK AO2 SLP228 T10171117
Observed Flight Rules
Dec-18 @ 15:57 UTC (35 minutes ago) Visual Flight Rules
Wind Visibility Clouds
Calm 10 miles
  • Clear skies
Temperatures Readings
Current -2°C / 28°F
Dewpoint -12°C / 10°F
Humidity 47%
Altimeter 30.18" Hg
Pressure 1022.8 hPa
Elevation 2134
METAR KFLG 181557Z 00000KT 10SM CLR M02/M12 A3018 RMK AO2 SLP228 T10171117
Observed Flight Rules
Dec-18 @ 15:57 UTC
(35 minutes ago)
VFR
Wind Visibility
Calm 10 miles
Clouds
  • Clear skies
Temperature Dewpoint
-2°C / 28°F -12°C / 10°F
Humidity Altimeter Pressure
47% 30.18" Hg 1022.8 hPa